sensor_id;sensor_type;location;lat;lon;timestamp;temperature;humidity
6443;DHT22;3254;47.372;8.512;2022-12-18T00:01:57;-1.50;52.00
6443;DHT22;3254;47.372;8.512;2022-12-18T00:04:25;-1.50;51.80
6443;DHT22;3254;47.372;8.512;2022-12-18T00:06:51;-1.40;54.50
6443;DHT22;3254;47.372;8.512;2022-12-18T00:09:18;-1.40;55.80
6443;DHT22;3254;47.372;8.512;2022-12-18T00:11:43;-1.30;56.80
6443;DHT22;3254;47.372;8.512;2022-12-18T00:14:11;-1.30;55.60
6443;DHT22;3254;47.372;8.512;2022-12-18T00:16:37;-1.30;52.10
6443;DHT22;3254;47.372;8.512;2022-12-18T00:19:03;-1.40;48.90
6443;DHT22;3254;47.372;8.512;2022-12-18T00:21:30;-1.40;50.40
6443;DHT22;3254;47.372;8.512;2022-12-18T00:23:57;-1.40;49.30
6443;DHT22;3254;47.372;8.512;2022-12-18T00:26:33;-1.40;49.30
6443;DHT22;3254;47.372;8.512;2022-12-18T00:29:01;-1.40;49.00
6443;DHT22;3254;47.372;8.512;2022-12-18T00:31:27;-1.50;48.30
6443;DHT22;3254;47.372;8.512;2022-12-18T00:33:54;-1.60;49.60
6443;DHT22;3254;47.372;8.512;2022-12-18T00:36:23;-1.60;50.00
6443;DHT22;3254;47.372;8.512;2022-12-18T00:38:49;-1.60;51.30
6443;DHT22;3254;47.372;8.512;2022-12-18T00:41:16;-1.50;52.60
6443;DHT22;3254;47.372;8.512;2022-12-18T00:44:02;-1.50;53.00
6443;DHT22;3254;47.372;8.512;2022-12-18T00:46:27;-1.40;52.10
6443;DHT22;3254;47.372;8.512;2022-12-18T00:48:53;-1.40;53.20
6443;DHT22;3254;47.372;8.512;2022-12-18T00:51:18;-1.30;52.20
6443;DHT22;3254;47.372;8.512;2022-12-18T00:53:44;-1.30;52.10
6443;DHT22;3254;47.372;8.512;2022-12-18T00:56:10;-1.30;52.30
6443;DHT22;3254;47.372;8.512;2022-12-18T00:58:35;-1.30;52.90
6443;DHT22;3254;47.372;8.512;2022-12-18T01:01:01;-1.20;53.00
6443;DHT22;3254;47.372;8.512;2022-12-18T01:03:26;-1.20;53.00
6443;DHT22;3254;47.372;8.512;2022-12-18T01:05:52;-1.20;52.30
6443;DHT22;3254;47.372;8.512;2022-12-18T01:08:17;-1.10;52.10
6443;DHT22;3254;47.372;8.512;2022-12-18T01:10:43;-1.10;51.20
6443;DHT22;3254;47.372;8.512;2022-12-18T01:13:08;-1.10;49.20
6443;DHT22;3254;47.372;8.512;2022-12-18T01:15:34;-1.20;47.60
6443;DHT22;3254;47.372;8.512;2022-12-18T01:17:59;-1.20;47.70
6443;DHT22;3254;47.372;8.512;2022-12-18T01:20:25;-1.30;49.30
6443;DHT22;3254;47.372;8.512;2022-12-18T01:22:51;-1.20;50.00
6443;DHT22;3254;47.372;8.512;2022-12-18T01:25:16;-1.20;51.00
6443;DHT22;3254;47.372;8.512;2022-12-18T01:27:42;-1.20;52.80
6443;DHT22;3254;47.372;8.512;2022-12-18T01:30:08;-1.20;52.60
6443;DHT22;3254;47.372;8.512;2022-12-18T01:32:33;-1.20;50.30
6443;DHT22;3254;47.372;8.512;2022-12-18T01:34:59;-1.20;51.70
6443;DHT22;3254;47.372;8.512;2022-12-18T01:37:24;-1.20;48.90
6443;DHT22;3254;47.372;8.512;2022-12-18T01:39:50;-1.20;50.50
6443;DHT22;3254;47.372;8.512;2022-12-18T01:42:19;-1.20;49.80
6443;DHT22;3254;47.372;8.512;2022-12-18T01:50:46;-1.20;49.70
6443;DHT22;3254;47.372;8.512;2022-12-18T01:53:21;-1.20;47.90
6443;DHT22;3254;47.372;8.512;2022-12-18T01:55:53;-1.20;48.50
6443;DHT22;3254;47.372;8.512;2022-12-18T01:58:24;-1.20;49.70
6443;DHT22;3254;47.372;8.512;2022-12-18T02:00:54;-1.10;50.00
6443;DHT22;3254;47.372;8.512;2022-12-18T02:03:20;-1.10;49.40
6443;DHT22;3254;47.372;8.512;2022-12-18T02:06:05;-1.10;49.70
6443;DHT22;3254;47.372;8.512;2022-12-18T02:08:45;-1.10;50.80
6443;DHT22;3254;47.372;8.512;2022-12-18T02:11:23;-1.10;50.60
6443;DHT22;3254;47.372;8.512;2022-12-18T02:16:39;-1.10;49.30
6443;DHT22;3254;47.372;8.512;2022-12-18T02:22:06;-1.00;48.70
6443;DHT22;3254;47.372;8.512;2022-12-18T02:25:03;-1.00;49.30
6443;DHT22;3254;47.372;8.512;2022-12-18T02:27:32;-1.10;48.40
6443;DHT22;3254;47.372;8.512;2022-12-18T02:30:01;-1.00;47.00
6443;DHT22;3254;47.372;8.512;2022-12-18T02:32:30;-1.10;46.10
6443;DHT22;3254;47.372;8.512;2022-12-18T02:34:57;-1.10;46.40
6443;DHT22;3254;47.372;8.512;2022-12-18T02:37:25;-1.10;47.00
6443;DHT22;3254;47.372;8.512;2022-12-18T02:39:55;-1.10;47.70
6443;DHT22;3254;47.372;8.512;2022-12-18T02:42:22;-1.10;46.80
6443;DHT22;3254;47.372;8.512;2022-12-18T02:44:51;-1.10;46.00
6443;DHT22;3254;47.372;8.512;2022-12-18T02:47:23;-1.00;43.40
6443;DHT22;3254;47.372;8.512;2022-12-18T02:50:11;-1.10;44.20
6443;DHT22;3254;47.372;8.512;2022-12-18T02:58:58;-1.30;45.30
6443;DHT22;3254;47.372;8.512;2022-12-18T03:04:21;-1.20;48.30
6443;DHT22;3254;47.372;8.512;2022-12-18T03:06:50;-1.20;48.10
6443;DHT22;3254;47.372;8.512;2022-12-18T03:09:29;-1.20;47.50
6443;DHT22;3254;47.372;8.512;2022-12-18T03:12:06;-1.20;47.50
6443;DHT22;3254;47.372;8.512;2022-12-18T03:17:23;-1.20;47.00
6443;DHT22;3254;47.372;8.512;2022-12-18T03:19:51;-1.20;47.20
6443;DHT22;3254;47.372;8.512;2022-12-18T03:22:18;-1.20;47.90
6443;DHT22;3254;47.372;8.512;2022-12-18T03:24:46;-1.20;46.80
6443;DHT22;3254;47.372;8.512;2022-12-18T03:27:15;-1.20;46.30
6443;DHT22;3254;47.372;8.512;2022-12-18T03:30:12;-1.20;46.00
6443;DHT22;3254;47.372;8.512;2022-12-18T03:35:22;-1.20;46.60
6443;DHT22;3254;47.372;8.512;2022-12-18T03:37:49;-1.20;45.80
6443;DHT22;3254;47.372;8.512;2022-12-18T03:40:15;-1.20;45.50
6443;DHT22;3254;47.372;8.512;2022-12-18T03:42:51;-1.20;45.10
6443;DHT22;3254;47.372;8.512;2022-12-18T03:45:31;-1.30;43.70
6443;DHT22;3254;47.372;8.512;2022-12-18T03:51:07;-1.20;47.20
6443;DHT22;3254;47.372;8.512;2022-12-18T03:53:43;-1.20;46.20
6443;DHT22;3254;47.372;8.512;2022-12-18T03:56:13;-1.10;46.00
6443;DHT22;3254;47.372;8.512;2022-12-18T03:58:41;-1.20;44.40
6443;DHT22;3254;47.372;8.512;2022-12-18T04:01:10;-1.20;45.10
6443;DHT22;3254;47.372;8.512;2022-12-18T04:03:39;-1.20;44.70
6443;DHT22;3254;47.372;8.512;2022-12-18T04:06:06;-1.20;45.20
6443;DHT22;3254;47.372;8.512;2022-12-18T04:08:33;-1.30;46.20
6443;DHT22;3254;47.372;8.512;2022-12-18T04:11:01;-1.20;45.10
6443;DHT22;3254;47.372;8.512;2022-12-18T04:13:49;-1.20;45.30
6443;DHT22;3254;47.372;8.512;2022-12-18T04:16:15;-1.20;45.20
6443;DHT22;3254;47.372;8.512;2022-12-18T04:18:40;-1.20;44.70
6443;DHT22;3254;47.372;8.512;2022-12-18T04:21:06;-1.20;43.00
6443;DHT22;3254;47.372;8.512;2022-12-18T04:23:31;-1.10;44.90
6443;DHT22;3254;47.372;8.512;2022-12-18T04:25:57;-1.10;45.10
6443;DHT22;3254;47.372;8.512;2022-12-18T04:28:22;-1.10;45.80
6443;DHT22;3254;47.372;8.512;2022-12-18T04:30:48;-1.00;44.30
6443;DHT22;3254;47.372;8.512;2022-12-18T04:33:17;-1.10;41.90
6443;DHT22;3254;47.372;8.512;2022-12-18T04:35:44;-1.10;42.20
6443;DHT22;3254;47.372;8.512;2022-12-18T04:38:10;-1.10;43.60
6443;DHT22;3254;47.372;8.512;2022-12-18T04:40:36;-1.10;44.20
6443;DHT22;3254;47.372;8.512;2022-12-18T04:43:02;-1.10;44.30
6443;DHT22;3254;47.372;8.512;2022-12-18T04:45:29;-1.00;42.90
6443;DHT22;3254;47.372;8.512;2022-12-18T04:47:58;-1.10;41.80
6443;DHT22;3254;47.372;8.512;2022-12-18T04:50:24;-1.10;43.00
6443;DHT22;3254;47.372;8.512;2022-12-18T04:52:50;-1.10;42.90
6443;DHT22;3254;47.372;8.512;2022-12-18T04:55:16;-1.10;41.10
6443;DHT22;3254;47.372;8.512;2022-12-18T04:57:41;-1.10;42.40
6443;DHT22;3254;47.372;8.512;2022-12-18T05:00:07;-1.10;42.10
6443;DHT22;3254;47.372;8.512;2022-12-18T05:02:33;-1.10;41.90
6443;DHT22;3254;47.372;8.512;2022-12-18T05:04:59;-1.00;41.90
6443;DHT22;3254;47.372;8.512;2022-12-18T05:07:24;-1.00;39.80
6443;DHT22;3254;47.372;8.512;2022-12-18T05:09:50;-1.00;38.60
6443;DHT22;3254;47.372;8.512;2022-12-18T05:12:15;-1.10;38.20
6443;DHT22;3254;47.372;8.512;2022-12-18T05:14:41;-1.10;38.40
6443;DHT22;3254;47.372;8.512;2022-12-18T05:17:07;-1.10;38.40
6443;DHT22;3254;47.372;8.512;2022-12-18T05:19:32;-1.10;37.50
6443;DHT22;3254;47.372;8.512;2022-12-18T05:21:58;-1.20;33.50
6443;DHT22;3254;47.372;8.512;2022-12-18T05:24:23;-1.30;33.50
6443;DHT22;3254;47.372;8.512;2022-12-18T05:26:49;-1.40;33.30
6443;DHT22;3254;47.372;8.512;2022-12-18T05:29:15;-1.40;33.10
6443;DHT22;3254;47.372;8.512;2022-12-18T05:31:40;-1.40;32.60
6443;DHT22;3254;47.372;8.512;2022-12-18T05:34:06;-1.50;32.50
6443;DHT22;3254;47.372;8.512;2022-12-18T05:36:32;-1.50;31.60
6443;DHT22;3254;47.372;8.512;2022-12-18T05:38:58;-1.50;31.60
6443;DHT22;3254;47.372;8.512;2022-12-18T05:41:23;-1.50;31.80
6443;DHT22;3254;47.372;8.512;2022-12-18T05:43:49;-1.50;32.00
6443;DHT22;3254;47.372;8.512;2022-12-18T05:46:16;-1.60;30.90
6443;DHT22;3254;47.372;8.512;2022-12-18T05:48:43;-1.60;31.50
6443;DHT22;3254;47.372;8.512;2022-12-18T05:51:12;-1.60;33.40
6443;DHT22;3254;47.372;8.512;2022-12-18T05:53:40;-1.50;33.80
6443;DHT22;3254;47.372;8.512;2022-12-18T05:56:08;-1.50;35.30
6443;DHT22;3254;47.372;8.512;2022-12-18T05:58:34;-1.50;33.70
6443;DHT22;3254;47.372;8.512;2022-12-18T06:01:27;-1.40;35.50
6443;DHT22;3254;47.372;8.512;2022-12-18T06:03:52;-1.40;34.20
6443;DHT22;3254;47.372;8.512;2022-12-18T06:06:20;-1.30;34.90
6443;DHT22;3254;47.372;8.512;2022-12-18T06:08:46;-1.30;35.70
6443;DHT22;3254;47.372;8.512;2022-12-18T06:11:13;-1.40;34.30
6443;DHT22;3254;47.372;8.512;2022-12-18T06:13:38;-1.30;35.40
6443;DHT22;3254;47.372;8.512;2022-12-18T06:16:05;-1.30;34.40
6443;DHT22;3254;47.372;8.512;2022-12-18T06:18:31;-1.30;32.80
6443;DHT22;3254;47.372;8.512;2022-12-18T06:20:58;-1.40;31.80
6443;DHT22;3254;47.372;8.512;2022-12-18T06:23:24;-1.40;31.60
6443;DHT22;3254;47.372;8.512;2022-12-18T06:25:50;-1.50;30.40
6443;DHT22;3254;47.372;8.512;2022-12-18T06:28:15;-1.50;30.90
6443;DHT22;3254;47.372;8.512;2022-12-18T06:30:47;-1.50;32.70
6443;DHT22;3254;47.372;8.512;2022-12-18T06:33:14;-1.50;34.60
6443;DHT22;3254;47.372;8.512;2022-12-18T06:35:40;-1.50;32.20
6443;DHT22;3254;47.372;8.512;2022-12-18T06:38:05;-1.40;34.60
6443;DHT22;3254;47.372;8.512;2022-12-18T06:40:31;-1.50;32.70
6443;DHT22;3254;47.372;8.512;2022-12-18T06:42:57;-1.50;31.30
6443;DHT22;3254;47.372;8.512;2022-12-18T06:45:23;-1.50;32.20
6443;DHT22;3254;47.372;8.512;2022-12-18T06:47:48;-1.50;31.20
6443;DHT22;3254;47.372;8.512;2022-12-18T06:50:14;-1.50;31.10
6443;DHT22;3254;47.372;8.512;2022-12-18T06:52:39;-1.50;30.90
6443;DHT22;3254;47.372;8.512;2022-12-18T06:55:06;-1.50;31.70
6443;DHT22;3254;47.372;8.512;2022-12-18T06:57:33;-1.50;30.80
6443;DHT22;3254;47.372;8.512;2022-12-18T06:59:58;-1.50;31.70
6443;DHT22;3254;47.372;8.512;2022-12-18T07:02:24;-1.50;33.80
6443;DHT22;3254;47.372;8.512;2022-12-18T07:04:49;-1.40;33.60
6443;DHT22;3254;47.372;8.512;2022-12-18T07:07:15;-1.40;33.30
6443;DHT22;3254;47.372;8.512;2022-12-18T07:09:41;-1.40;32.80
6443;DHT22;3254;47.372;8.512;2022-12-18T07:12:06;-1.40;32.30
6443;DHT22;3254;47.372;8.512;2022-12-18T07:14:33;-1.30;31.60
6443;DHT22;3254;47.372;8.512;2022-12-18T07:16:58;-1.40;30.20
6443;DHT22;3254;47.372;8.512;2022-12-18T07:19:24;-1.30;30.40
6443;DHT22;3254;47.372;8.512;2022-12-18T07:21:50;-1.30;31.70
6443;DHT22;3254;47.372;8.512;2022-12-18T07:24:16;-1.20;33.40
6443;DHT22;3254;47.372;8.512;2022-12-18T07:26:42;-1.20;32.60
6443;DHT22;3254;47.372;8.512;2022-12-18T07:29:07;-1.20;33.00
6443;DHT22;3254;47.372;8.512;2022-12-18T07:31:33;-1.20;31.90
6443;DHT22;3254;47.372;8.512;2022-12-18T07:33:59;-1.20;31.50
6443;DHT22;3254;47.372;8.512;2022-12-18T07:36:24;-1.20;29.60
6443;DHT22;3254;47.372;8.512;2022-12-18T07:38:50;-1.30;30.70
6443;DHT22;3254;47.372;8.512;2022-12-18T07:41:18;-1.30;29.30
6443;DHT22;3254;47.372;8.512;2022-12-18T07:43:44;-1.30;29.60
6443;DHT22;3254;47.372;8.512;2022-12-18T07:46:10;-1.20;29.70
6443;DHT22;3254;47.372;8.512;2022-12-18T07:48:36;-1.20;30.30
6443;DHT22;3254;47.372;8.512;2022-12-18T07:51:04;-1.10;31.90
6443;DHT22;3254;47.372;8.512;2022-12-18T07:53:31;-1.00;32.40
6443;DHT22;3254;47.372;8.512;2022-12-18T07:56:02;-0.90;32.30
6443;DHT22;3254;47.372;8.512;2022-12-18T07:58:28;-1.00;30.20
6443;DHT22;3254;47.372;8.512;2022-12-18T08:00:54;-0.90;30.90
6443;DHT22;3254;47.372;8.512;2022-12-18T08:03:27;-1.00;30.50
6443;DHT22;3254;47.372;8.512;2022-12-18T08:05:52;-1.00;29.50
6443;DHT22;3254;47.372;8.512;2022-12-18T08:08:18;-1.00;27.70
6443;DHT22;3254;47.372;8.512;2022-12-18T08:10:43;-1.20;28.50
6443;DHT22;3254;47.372;8.512;2022-12-18T08:13:09;-1.10;28.30
6443;DHT22;3254;47.372;8.512;2022-12-18T08:15:34;-1.10;29.60
6443;DHT22;3254;47.372;8.512;2022-12-18T08:18:00;-0.90;30.00
6443;DHT22;3254;47.372;8.512;2022-12-18T08:20:25;-0.80;30.50
6443;DHT22;3254;47.372;8.512;2022-12-18T08:22:51;-0.80;28.90
6443;DHT22;3254;47.372;8.512;2022-12-18T08:25:16;-0.90;28.10
6443;DHT22;3254;47.372;8.512;2022-12-18T08:27:42;-0.90;26.70
6443;DHT22;3254;47.372;8.512;2022-12-18T08:30:08;-0.80;28.90
6443;DHT22;3254;47.372;8.512;2022-12-18T08:32:34;-0.90;27.20
6443;DHT22;3254;47.372;8.512;2022-12-18T08:34:59;-1.00;27.30
6443;DHT22;3254;47.372;8.512;2022-12-18T08:37:25;-1.00;27.50
6443;DHT22;3254;47.372;8.512;2022-12-18T08:39:50;-0.90;27.10
6443;DHT22;3254;47.372;8.512;2022-12-18T08:42:16;-0.80;28.00
6443;DHT22;3254;47.372;8.512;2022-12-18T08:45:02;-0.80;26.90
6443;DHT22;3254;47.372;8.512;2022-12-18T08:47:28;-0.70;26.90
6443;DHT22;3254;47.372;8.512;2022-12-18T08:49:54;-0.60;26.80
6443;DHT22;3254;47.372;8.512;2022-12-18T08:52:19;-0.60;25.50
6443;DHT22;3254;47.372;8.512;2022-12-18T08:54:45;-0.70;25.60
6443;DHT22;3254;47.372;8.512;2022-12-18T08:57:10;-0.60;25.90
6443;DHT22;3254;47.372;8.512;2022-12-18T08:59:36;-0.60;24.50
6443;DHT22;3254;47.372;8.512;2022-12-18T09:02:02;-0.60;25.00
6443;DHT22;3254;47.372;8.512;2022-12-18T09:04:27;-0.40;25.10
6443;DHT22;3254;47.372;8.512;2022-12-18T09:06:53;-0.50;24.90
6443;DHT22;3254;47.372;8.512;2022-12-18T09:09:18;-0.30;24.70
6443;DHT22;3254;47.372;8.512;2022-12-18T09:11:44;-0.10;26.50
6443;DHT22;3254;47.372;8.512;2022-12-18T09:14:10;-0.10;26.30
6443;DHT22;3254;47.372;8.512;2022-12-18T09:16:35;0.00;23.50
6443;DHT22;3254;47.372;8.512;2022-12-18T09:19:03;-0.10;24.60
6443;DHT22;3254;47.372;8.512;2022-12-18T09:21:31;-0.10;22.70
6443;DHT22;3254;47.372;8.512;2022-12-18T09:23:57;-0.10;22.00
6443;DHT22;3254;47.372;8.512;2022-12-18T09:26:24;0.00;21.40
6443;DHT22;3254;47.372;8.512;2022-12-18T09:28:50;0.00;22.10
6443;DHT22;3254;47.372;8.512;2022-12-18T09:31:18;0.10;20.80
6443;DHT22;3254;47.372;8.512;2022-12-18T09:33:44;0.00;21.00
6443;DHT22;3254;47.372;8.512;2022-12-18T09:36:13;0.00;22.50
6443;DHT22;3254;47.372;8.512;2022-12-18T09:38:38;0.00;21.50
6443;DHT22;3254;47.372;8.512;2022-12-18T09:43:57;-0.20;22.50
6443;DHT22;3254;47.372;8.512;2022-12-18T09:46:29;-0.20;22.90
6443;DHT22;3254;47.372;8.512;2022-12-18T09:49:00;-0.20;22.70
6443;DHT22;3254;47.372;8.512;2022-12-18T09:51:27;-0.20;21.20
6443;DHT22;3254;47.372;8.512;2022-12-18T09:53:58;-0.30;20.10
6443;DHT22;3254;47.372;8.512;2022-12-18T09:56:28;-0.10;21.30
6443;DHT22;3254;47.372;8.512;2022-12-18T09:59:01;0.10;21.80
6443;DHT22;3254;47.372;8.512;2022-12-18T10:01:28;0.20;21.10
6443;DHT22;3254;47.372;8.512;2022-12-18T10:03:54;0.20;18.80
6443;DHT22;3254;47.372;8.512;2022-12-18T10:06:43;0.10;18.30
6443;DHT22;3254;47.372;8.512;2022-12-18T10:14:57;0.50;17.20
6443;DHT22;3254;47.372;8.512;2022-12-18T10:17:45;0.40;18.50
6443;DHT22;3254;47.372;8.512;2022-12-18T10:23:13;0.30;16.50
6443;DHT22;3254;47.372;8.512;2022-12-18T10:26:02;0.20;15.70
6443;DHT22;3254;47.372;8.512;2022-12-18T10:28:30;0.30;16.80
6443;DHT22;3254;47.372;8.512;2022-12-18T10:30:56;0.50;15.80
6443;DHT22;3254;47.372;8.512;2022-12-18T10:33:24;0.60;16.30
6443;DHT22;3254;47.372;8.512;2022-12-18T10:35:50;0.60;14.30
6443;DHT22;3254;47.372;8.512;2022-12-18T10:41:06;0.40;18.00
6443;DHT22;3254;47.372;8.512;2022-12-18T10:43:36;0.50;16.90
6443;DHT22;3254;47.372;8.512;2022-12-18T10:46:11;0.60;17.10
6443;DHT22;3254;47.372;8.512;2022-12-18T10:48:53;0.50;16.40
6443;DHT22;3254;47.372;8.512;2022-12-18T10:56:29;0.70;16.50
6443;DHT22;3254;47.372;8.512;2022-12-18T10:59:07;0.70;17.00
6443;DHT22;3254;47.372;8.512;2022-12-18T11:01:53;0.70;16.90
6443;DHT22;3254;47.372;8.512;2022-12-18T11:04:31;0.60;18.20
6443;DHT22;3254;47.372;8.512;2022-12-18T11:07:01;0.70;19.00
6443;DHT22;3254;47.372;8.512;2022-12-18T11:09:34;0.70;18.00
6443;DHT22;3254;47.372;8.512;2022-12-18T11:12:03;0.70;17.00
6443;DHT22;3254;47.372;8.512;2022-12-18T11:14:34;0.70;16.50
6443;DHT22;3254;47.372;8.512;2022-12-18T11:17:00;0.70;16.80
6443;DHT22;3254;47.372;8.512;2022-12-18T11:19:39;0.90;15.50
6443;DHT22;3254;47.372;8.512;2022-12-18T11:22:27;0.80;15.00
6443;DHT22;3254;47.372;8.512;2022-12-18T11:28:34;0.90;12.80
6443;DHT22;3254;47.372;8.512;2022-12-18T11:30:35;0.90;14.80
6443;DHT22;3254;47.372;8.512;2022-12-18T11:35:53;1.10;14.90
6443;DHT22;3254;47.372;8.512;2022-12-18T11:38:37;1.20;14.70
6443;DHT22;3254;47.372;8.512;2022-12-18T11:44:13;1.40;13.50
6443;DHT22;3254;47.372;8.512;2022-12-18T11:47:04;1.50;11.80
6443;DHT22;3254;47.372;8.512;2022-12-18T11:49:35;1.50;10.30
6443;DHT22;3254;47.372;8.512;2022-12-18T11:54:41;1.30;10.00
6443;DHT22;3254;47.372;8.512;2022-12-18T11:57:16;1.20;8.90
6443;DHT22;3254;47.372;8.512;2022-12-18T12:00:12;1.20;9.20
6443;DHT22;3254;47.372;8.512;2022-12-18T12:05:41;1.20;10.70
6443;DHT22;3254;47.372;8.512;2022-12-18T12:08:19;1.10;11.30
6443;DHT22;3254;47.372;8.512;2022-12-18T12:11:00;1.10;11.40
6443;DHT22;3254;47.372;8.512;2022-12-18T12:13:41;1.10;9.60
6443;DHT22;3254;47.372;8.512;2022-12-18T12:19:02;0.60;9.30
6443;DHT22;3254;47.372;8.512;2022-12-18T12:21:40;0.40;9.80
6443;DHT22;3254;47.372;8.512;2022-12-18T12:27:11;0.60;12.30
6443;DHT22;3254;47.372;8.512;2022-12-18T12:38:21;1.00;12.60
6443;DHT22;3254;47.372;8.512;2022-12-18T12:43:44;1.30;12.20
6443;DHT22;3254;47.372;8.512;2022-12-18T12:46:12;1.20;10.20
6443;DHT22;3254;47.372;8.512;2022-12-18T12:48:55;1.20;10.10
6443;DHT22;3254;47.372;8.512;2022-12-18T12:51:36;1.20;11.20
6443;DHT22;3254;47.372;8.512;2022-12-18T12:54:05;1.20;8.80
6443;DHT22;3254;47.372;8.512;2022-12-18T12:56:50;0.90;8.20
6443;DHT22;3254;47.372;8.512;2022-12-18T12:59:31;0.90;9.80
6443;DHT22;3254;47.372;8.512;2022-12-18T13:02:18;0.90;8.90
6443;DHT22;3254;47.372;8.512;2022-12-18T13:04:56;1.00;11.00
6443;DHT22;3254;47.372;8.512;2022-12-18T13:07:26;1.20;8.40
6443;DHT22;3254;47.372;8.512;2022-12-18T13:15:43;1.00;7.50
6443;DHT22;3254;47.372;8.512;2022-12-18T13:20:37;1.10;10.40
6443;DHT22;3254;47.372;8.512;2022-12-18T13:31:00;1.30;9.30
6443;DHT22;3254;47.372;8.512;2022-12-18T13:36:15;1.40;10.10
6443;DHT22;3254;47.372;8.512;2022-12-18T13:38:41;1.20;7.30
6443;DHT22;3254;47.372;8.512;2022-12-18T13:43:48;1.10;8.30
6443;DHT22;3254;47.372;8.512;2022-12-18T13:48:51;1.40;9.70
6443;DHT22;3254;47.372;8.512;2022-12-18T13:51:18;1.50;11.20
6443;DHT22;3254;47.372;8.512;2022-12-18T13:53:50;1.50;10.40
6443;DHT22;3254;47.372;8.512;2022-12-18T13:56:17;1.50;9.80
6443;DHT22;3254;47.372;8.512;2022-12-18T13:58:43;1.40;9.20
6443;DHT22;3254;47.372;8.512;2022-12-18T14:01:29;1.10;7.60
6443;DHT22;3254;47.372;8.512;2022-12-18T14:04:12;1.00;8.80
6443;DHT22;3254;47.372;8.512;2022-12-18T14:06:38;0.80;11.30
6443;DHT22;3254;47.372;8.512;2022-12-18T14:09:03;0.80;10.00
6443;DHT22;3254;47.372;8.512;2022-12-18T14:11:29;1.00;12.00
6443;DHT22;3254;47.372;8.512;2022-12-18T14:13:56;0.90;10.10
6443;DHT22;3254;47.372;8.512;2022-12-18T14:16:22;0.80;10.70
6443;DHT22;3254;47.372;8.512;2022-12-18T14:18:54;0.70;10.60
6443;DHT22;3254;47.372;8.512;2022-12-18T14:21:28;0.70;11.30
6443;DHT22;3254;47.372;8.512;2022-12-18T14:26:31;0.50;12.00
6443;DHT22;3254;47.372;8.512;2022-12-18T14:28:59;0.40;11.70
6443;DHT22;3254;47.372;8.512;2022-12-18T14:31:30;0.50;14.60
6443;DHT22;3254;47.372;8.512;2022-12-18T14:33:56;0.40;13.00
6443;DHT22;3254;47.372;8.512;2022-12-18T14:36:26;0.40;14.00
6443;DHT22;3254;47.372;8.512;2022-12-18T14:38:57;0.40;15.00
6443;DHT22;3254;47.372;8.512;2022-12-18T14:41:23;0.50;15.90
6443;DHT22;3254;47.372;8.512;2022-12-18T14:43:51;0.40;14.00
6443;DHT22;3254;47.372;8.512;2022-12-18T14:49:05;0.00;15.10
6443;DHT22;3254;47.372;8.512;2022-12-18T14:51:51;-0.10;15.70
6443;DHT22;3254;47.372;8.512;2022-12-18T14:54:19;-0.10;16.70
6443;DHT22;3254;47.372;8.512;2022-12-18T14:56:51;-0.10;17.20
6443;DHT22;3254;47.372;8.512;2022-12-18T14:59:22;-0.10;18.50
6443;DHT22;3254;47.372;8.512;2022-12-18T15:02:11;-0.10;18.50
6443;DHT22;3254;47.372;8.512;2022-12-18T15:04:41;-0.20;20.50
6443;DHT22;3254;47.372;8.512;2022-12-18T15:07:17;-0.30;21.90
6443;DHT22;3254;47.372;8.512;2022-12-18T15:14:59;-0.30;24.00
6443;DHT22;3254;47.372;8.512;2022-12-18T15:17:25;-0.40;24.10
6443;DHT22;3254;47.372;8.512;2022-12-18T15:19:53;-0.40;25.30
6443;DHT22;3254;47.372;8.512;2022-12-18T15:22:33;-0.40;25.60
6443;DHT22;3254;47.372;8.512;2022-12-18T15:24:59;-0.40;26.30
6443;DHT22;3254;47.372;8.512;2022-12-18T15:27:31;-0.50;27.10
6443;DHT22;3254;47.372;8.512;2022-12-18T15:32:34;-0.30;33.80
6443;DHT22;3254;47.372;8.512;2022-12-18T15:37:35;-0.40;33.30
6443;DHT22;3254;47.372;8.512;2022-12-18T15:40:00;-0.40;33.70
6443;DHT22;3254;47.372;8.512;2022-12-18T15:42:27;-0.40;33.70
6443;DHT22;3254;47.372;8.512;2022-12-18T15:45:12;-0.40;34.50
6443;DHT22;3254;47.372;8.512;2022-12-18T15:47:38;-0.40;33.70
6443;DHT22;3254;47.372;8.512;2022-12-18T15:50:04;-0.40;36.20
6443;DHT22;3254;47.372;8.512;2022-12-18T15:52:40;-0.30;38.00
6443;DHT22;3254;47.372;8.512;2022-12-18T15:55:15;-0.30;38.50
6443;DHT22;3254;47.372;8.512;2022-12-18T15:57:59;-0.30;35.00
6443;DHT22;3254;47.372;8.512;2022-12-18T16:00:25;-0.40;35.70
6443;DHT22;3254;47.372;8.512;2022-12-18T16:02:51;-0.40;36.70
6443;DHT22;3254;47.372;8.512;2022-12-18T16:05:18;-0.40;38.00
6443;DHT22;3254;47.372;8.512;2022-12-18T16:07:44;-0.40;38.50
6443;DHT22;3254;47.372;8.512;2022-12-18T16:10:11;-0.30;39.20
6443;DHT22;3254;47.372;8.512;2022-12-18T16:12:36;-0.30;38.30
6443;DHT22;3254;47.372;8.512;2022-12-18T16:15:03;-0.40;36.50
6443;DHT22;3254;47.372;8.512;2022-12-18T16:17:29;-0.50;37.30
6443;DHT22;3254;47.372;8.512;2022-12-18T16:19:55;-0.50;37.80
6443;DHT22;3254;47.372;8.512;2022-12-18T16:22:25;-0.50;38.70
6443;DHT22;3254;47.372;8.512;2022-12-18T16:24:52;-0.40;38.50
6443;DHT22;3254;47.372;8.512;2022-12-18T16:27:19;-0.40;39.20
6443;DHT22;3254;47.372;8.512;2022-12-18T16:29:44;-0.40;40.00
6443;DHT22;3254;47.372;8.512;2022-12-18T16:32:19;-0.40;40.30
6443;DHT22;3254;47.372;8.512;2022-12-18T16:34:45;-0.40;40.80
6443;DHT22;3254;47.372;8.512;2022-12-18T16:37:12;-0.40;39.90
6443;DHT22;3254;47.372;8.512;2022-12-18T16:39:39;-0.50;41.70
6443;DHT22;3254;47.372;8.512;2022-12-18T16:42:14;-0.40;43.30
6443;DHT22;3254;47.372;8.512;2022-12-18T16:44:42;-0.40;42.90
6443;DHT22;3254;47.372;8.512;2022-12-18T16:47:08;-0.30;45.00
6443;DHT22;3254;47.372;8.512;2022-12-18T16:49:34;-0.30;41.90
6443;DHT22;3254;47.372;8.512;2022-12-18T16:52:00;-0.20;44.20
6443;DHT22;3254;47.372;8.512;2022-12-18T16:54:25;-0.30;43.70
6443;DHT22;3254;47.372;8.512;2022-12-18T16:56:54;-0.20;44.70
6443;DHT22;3254;47.372;8.512;2022-12-18T16:59:20;-0.20;42.90
6443;DHT22;3254;47.372;8.512;2022-12-18T17:01:46;-0.20;44.30
6443;DHT22;3254;47.372;8.512;2022-12-18T17:04:11;-0.20;43.30
6443;DHT22;3254;47.372;8.512;2022-12-18T17:06:42;-0.20;44.30
6443;DHT22;3254;47.372;8.512;2022-12-18T17:09:11;-0.10;45.90
6443;DHT22;3254;47.372;8.512;2022-12-18T17:11:39;-0.10;45.90
6443;DHT22;3254;47.372;8.512;2022-12-18T17:14:10;0.00;46.10
6443;DHT22;3254;47.372;8.512;2022-12-18T17:16:36;0.00;44.90
6443;DHT22;3254;47.372;8.512;2022-12-18T17:19:02;-0.10;44.50
6443;DHT22;3254;47.372;8.512;2022-12-18T17:21:28;-0.10;44.60
6443;DHT22;3254;47.372;8.512;2022-12-18T17:23:53;-0.10;44.70
6443;DHT22;3254;47.372;8.512;2022-12-18T17:26:19;0.00;43.90
6443;DHT22;3254;47.372;8.512;2022-12-18T17:28:45;0.00;42.50
6443;DHT22;3254;47.372;8.512;2022-12-18T17:31:12;0.00;42.00
6443;DHT22;3254;47.372;8.512;2022-12-18T17:33:39;0.00;41.30
6443;DHT22;3254;47.372;8.512;2022-12-18T17:36:05;0.00;42.00
6443;DHT22;3254;47.372;8.512;2022-12-18T17:38:30;0.00;42.10
6443;DHT22;3254;47.372;8.512;2022-12-18T17:41:03;-0.10;40.70
6443;DHT22;3254;47.372;8.512;2022-12-18T17:43:30;-0.10;41.40
6443;DHT22;3254;47.372;8.512;2022-12-18T17:45:56;-0.10;40.60
6443;DHT22;3254;47.372;8.512;2022-12-18T17:48:25;-0.10;39.50
6443;DHT22;3254;47.372;8.512;2022-12-18T17:50:51;-0.20;39.40
6443;DHT22;3254;47.372;8.512;2022-12-18T17:53:16;-0.20;40.60
6443;DHT22;3254;47.372;8.512;2022-12-18T17:55:42;-0.20;40.20
6443;DHT22;3254;47.372;8.512;2022-12-18T17:58:07;-0.20;40.40
6443;DHT22;3254;47.372;8.512;2022-12-18T18:00:33;-0.20;40.10
6443;DHT22;3254;47.372;8.512;2022-12-18T18:02:59;-0.30;40.30
6443;DHT22;3254;47.372;8.512;2022-12-18T18:05:25;-0.30;41.70
6443;DHT22;3254;47.372;8.512;2022-12-18T18:07:50;-0.20;42.30
6443;DHT22;3254;47.372;8.512;2022-12-18T18:10:16;-0.30;42.30
6443;DHT22;3254;47.372;8.512;2022-12-18T18:12:42;-0.20;43.80
6443;DHT22;3254;47.372;8.512;2022-12-18T18:15:26;-0.20;44.00
6443;DHT22;3254;47.372;8.512;2022-12-18T18:17:51;-0.20;43.60
6443;DHT22;3254;47.372;8.512;2022-12-18T18:20:17;-0.20;44.20